createdAt,value
2022-12-25T00:02:01.315Z,7.12
2022-12-25T00:04:30.227Z,7.13
2022-12-25T00:07:02.951Z,7.17
2022-12-25T00:09:31.767Z,7.20
2022-12-25T00:12:00.710Z,7.23
2022-12-25T00:14:29.526Z,7.26
2022-12-25T00:16:58.409Z,7.27
2022-12-25T00:19:27.183Z,7.28
2022-12-25T00:21:55.906Z,7.28
2022-12-25T00:24:24.691Z,7.28
2022-12-25T00:26:53.670Z,7.28
2022-12-25T00:29:22.484Z,7.31
2022-12-25T00:31:51.471Z,7.35
2022-12-25T00:34:20.501Z,7.39
2022-12-25T00:36:50.789Z,7.43
2022-12-25T00:39:19.707Z,7.45
2022-12-25T00:42:06.360Z,7.46
2022-12-25T00:44:35.762Z,7.47
2022-12-25T00:47:04.808Z,7.45
2022-12-25T00:49:33.880Z,7.42
2022-12-25T00:52:02.855Z,7.39
2022-12-25T00:54:31.769Z,7.38
2022-12-25T00:57:00.672Z,7.38
2022-12-25T00:59:31.599Z,7.39
2022-12-25T01:02:21.844Z,7.42
2022-12-25T01:04:50.974Z,7.43
2022-12-25T01:07:20.114Z,7.43
2022-12-25T01:10:06.842Z,7.43
2022-12-25T01:12:36.455Z,7.42
2022-12-25T01:15:05.872Z,7.40
2022-12-25T01:17:34.908Z,7.41
2022-12-25T01:20:04.166Z,7.42
2022-12-25T01:22:33.099Z,7.42
2022-12-25T01:25:02.047Z,7.43
2022-12-25T01:27:30.991Z,7.43
2022-12-25T01:29:59.864Z,7.42
2022-12-25T01:32:28.766Z,7.38
2022-12-25T01:34:57.612Z,7.33
2022-12-25T01:37:27.165Z,7.30
2022-12-25T01:39:56.045Z,7.27
2022-12-25T01:42:25.024Z,7.25
2022-12-25T01:45:23.616Z,7.25
2022-12-25T01:47:52.640Z,7.25
2022-12-25T01:50:21.817Z,7.23
2022-12-25T01:52:50.741Z,7.21
2022-12-25T01:55:19.699Z,7.18
2022-12-25T01:57:48.519Z,7.14
2022-12-25T02:00:17.852Z,7.11
2022-12-25T02:02:46.832Z,7.10
2022-12-25T02:05:17.965Z,7.11
2022-12-25T02:07:46.936Z,7.11
2022-12-25T02:10:15.810Z,7.11
2022-12-25T02:12:45.042Z,7.10
2022-12-25T02:15:14.565Z,7.07
2022-12-25T02:17:44.445Z,7.05
2022-12-25T02:20:24.742Z,7.01
2022-12-25T02:22:58.283Z,7.01
2022-12-25T02:25:31.872Z,7.03
2022-12-25T02:28:05.343Z,7.03
2022-12-25T02:30:36.303Z,7.05
2022-12-25T02:33:23.778Z,7.06
2022-12-25T02:35:53.339Z,7.04
2022-12-25T02:38:24.085Z,7.02
2022-12-25T02:40:54.716Z,7.00
2022-12-25T02:43:41.809Z,7.00
2022-12-25T02:46:28.530Z,7.01
2022-12-25T02:49:15.566Z,7.01
2022-12-25T02:52:03.498Z,7.01
2022-12-25T02:54:51.156Z,7.00
2022-12-25T02:57:38.915Z,6.99
2022-12-25T03:00:26.716Z,6.97
2022-12-25T03:03:22.285Z,6.95
2022-12-25T03:06:09.646Z,6.94
2022-12-25T03:08:38.845Z,6.95
2022-12-25T03:11:26.660Z,6.96
2022-12-25T03:14:16.811Z,6.98
2022-12-25T03:16:51.463Z,7.00
2022-12-25T03:19:38.113Z,7.02
2022-12-25T03:22:24.418Z,7.01
2022-12-25T03:25:25.057Z,6.98
2022-12-25T03:27:54.329Z,6.96
2022-12-25T03:30:40.984Z,6.94
2022-12-25T03:33:29.829Z,6.94
2022-12-25T03:36:04.714Z,6.96
2022-12-25T03:38:52.549Z,6.98
2022-12-25T03:41:40.122Z,7.01
2022-12-25T03:44:29.374Z,7.04
2022-12-25T03:47:18.043Z,7.06
2022-12-25T03:50:04.873Z,7.06
2022-12-25T03:52:52.876Z,7.06
2022-12-25T03:55:54.235Z,7.09
2022-12-25T03:58:41.656Z,7.12
2022-12-25T04:01:28.194Z,7.16
2022-12-25T04:04:14.719Z,7.15
2022-12-25T04:07:00.884Z,7.14
2022-12-25T04:09:47.117Z,7.13
2022-12-25T04:12:33.690Z,7.12
2022-12-25T04:15:19.981Z,7.12
2022-12-25T04:18:06.255Z,7.17
2022-12-25T04:20:52.712Z,7.21
2022-12-25T04:23:39.194Z,7.23
2022-12-25T04:26:25.745Z,7.26
2022-12-25T04:29:11.763Z,7.26
2022-12-25T04:31:58.291Z,7.22
2022-12-25T04:34:44.516Z,7.21
2022-12-25T04:37:13.369Z,7.21
2022-12-25T04:39:42.555Z,7.21
2022-12-25T04:42:11.430Z,7.22
2022-12-25T04:44:40.254Z,7.24
2022-12-25T04:47:11.462Z,7.25
2022-12-25T04:49:40.776Z,7.24
2022-12-25T04:52:09.671Z,7.22
2022-12-25T04:54:39.687Z,7.23
2022-12-25T04:57:08.572Z,7.24
2022-12-25T04:59:37.449Z,7.25
2022-12-25T05:02:06.411Z,7.25
2022-12-25T05:04:35.542Z,7.22
2022-12-25T05:07:04.511Z,7.23
2022-12-25T05:09:33.478Z,7.22
2022-12-25T05:12:02.364Z,7.22
2022-12-25T05:14:31.606Z,7.21
2022-12-25T05:17:00.550Z,7.21
2022-12-25T05:19:29.418Z,7.20
2022-12-25T05:21:58.250Z,7.20
2022-12-25T05:24:27.571Z,7.20
2022-12-25T05:26:56.461Z,7.20
2022-12-25T05:29:25.307Z,7.18
2022-12-25T05:31:54.108Z,7.15
2022-12-25T05:34:23.143Z,7.10
2022-12-25T05:36:52.036Z,7.10
2022-12-25T05:39:21.003Z,7.10
2022-12-25T05:41:49.954Z,7.12
2022-12-25T05:44:18.882Z,7.15
2022-12-25T05:46:47.980Z,7.16
2022-12-25T05:49:16.944Z,7.16
2022-12-25T05:51:45.847Z,7.15
2022-12-25T05:54:14.693Z,7.13
2022-12-25T05:56:43.576Z,7.09
2022-12-25T05:59:12.446Z,7.10
2022-12-25T06:01:41.411Z,7.11
2022-12-25T06:04:12.624Z,7.14
2022-12-25T06:06:42.169Z,7.16
2022-12-25T06:09:11.298Z,7.16
2022-12-25T06:11:40.118Z,7.17
2022-12-25T06:14:11.217Z,7.17
2022-12-25T06:16:40.233Z,7.14
2022-12-25T06:19:09.148Z,7.12
2022-12-25T06:21:38.023Z,7.12
2022-12-25T06:24:07.492Z,7.13
2022-12-25T06:26:37.224Z,7.15
2022-12-25T06:29:06.324Z,7.17
2022-12-25T06:31:35.274Z,7.19
2022-12-25T06:34:04.310Z,7.20
2022-12-25T06:36:33.196Z,7.21
2022-12-25T06:39:02.332Z,7.20
2022-12-25T06:41:31.329Z,7.18
2022-12-25T06:44:01.029Z,7.16
2022-12-25T06:46:31.434Z,7.16
2022-12-25T06:49:00.404Z,7.17
2022-12-25T06:51:30.560Z,7.19
2022-12-25T06:53:59.742Z,7.22
2022-12-25T06:56:28.972Z,7.22
2022-12-25T06:58:58.258Z,7.23
2022-12-25T07:01:28.080Z,7.21
2022-12-25T07:03:57.534Z,7.21
2022-12-25T07:06:26.478Z,7.21
2022-12-25T07:08:55.459Z,7.22
2022-12-25T07:11:24.519Z,7.25
2022-12-25T07:13:53.433Z,7.26
2022-12-25T07:16:23.818Z,7.26
2022-12-25T07:18:54.223Z,7.26
2022-12-25T07:21:23.776Z,7.24
2022-12-25T07:23:53.540Z,7.24
2022-12-25T07:26:24.815Z,7.24
2022-12-25T07:28:57.229Z,7.23
2022-12-25T07:31:28.376Z,7.25
2022-12-25T07:33:58.253Z,7.26
2022-12-25T07:36:29.351Z,7.24
2022-12-25T07:38:59.285Z,7.22
2022-12-25T07:41:30.820Z,7.21
2022-12-25T07:44:15.438Z,7.23
2022-12-25T07:46:46.938Z,7.23
2022-12-25T07:49:17.328Z,7.25
2022-12-25T07:51:48.052Z,7.25
2022-12-25T07:54:19.509Z,7.24
2022-12-25T07:56:53.137Z,7.24
2022-12-25T07:59:23.338Z,7.24
2022-12-25T08:01:55.418Z,7.25
2022-12-25T08:04:26.337Z,7.26
2022-12-25T08:06:57.427Z,7.30
2022-12-25T08:09:28.315Z,7.36
2022-12-25T08:11:59.418Z,7.41
2022-12-25T08:14:29.331Z,7.44
2022-12-25T08:22:55.542Z,7.42
2022-12-25T08:25:24.719Z,7.40
2022-12-25T08:27:53.780Z,7.37
2022-12-25T08:30:22.705Z,7.35
2022-12-25T08:32:51.684Z,7.36
2022-12-25T08:35:20.627Z,7.35
2022-12-25T08:37:49.520Z,7.33
2022-12-25T08:40:18.635Z,7.35
2022-12-25T08:42:47.623Z,7.37
2022-12-25T08:45:16.933Z,7.38
2022-12-25T08:47:45.828Z,7.38
2022-12-25T08:50:14.885Z,7.41
2022-12-25T08:52:43.986Z,7.42
2022-12-25T08:55:12.938Z,7.44
2022-12-25T08:57:41.745Z,7.49
2022-12-25T09:00:11.376Z,7.52
2022-12-25T09:02:40.394Z,7.60
2022-12-25T09:05:10.734Z,7.63
2022-12-25T09:07:39.603Z,7.61
2022-12-25T09:10:09.870Z,7.67
2022-12-25T09:12:39.120Z,7.68
2022-12-25T09:15:09.360Z,7.68
2022-12-25T09:17:38.335Z,7.69
2022-12-25T09:20:08.586Z,7.70
2022-12-25T09:22:37.461Z,7.71
2022-12-25T09:25:07.394Z,7.69
2022-12-25T09:27:36.297Z,7.69
2022-12-25T09:30:05.971Z,7.70
2022-12-25T09:32:35.179Z,7.72
2022-12-25T09:35:04.216Z,7.72
2022-12-25T09:37:33.197Z,7.73
2022-12-25T09:40:02.334Z,7.73
2022-12-25T09:42:32.236Z,7.74
2022-12-25T09:45:02.110Z,7.75
2022-12-25T09:47:31.671Z,7.77
2022-12-25T09:50:01.609Z,7.77
2022-12-25T09:52:31.641Z,7.77
2022-12-25T09:55:01.366Z,7.75
2022-12-25T09:57:30.238Z,7.73
2022-12-25T09:59:59.159Z,7.74
2022-12-25T10:02:41.818Z,7.74
2022-12-25T10:05:16.885Z,7.73
2022-12-25T10:07:47.412Z,7.77
2022-12-25T10:10:20.212Z,7.85
2022-12-25T10:12:52.723Z,7.95
2022-12-25T10:15:26.732Z,8.04
2022-12-25T10:18:01.901Z,8.31
2022-12-25T10:20:54.545Z,8.52
2022-12-25T10:23:25.413Z,8.56
2022-12-25T10:25:54.333Z,8.64
2022-12-25T10:28:24.816Z,8.77
2022-12-25T10:30:53.744Z,8.84
2022-12-25T10:33:22.586Z,8.87
2022-12-25T10:35:51.439Z,8.92
2022-12-25T10:38:20.514Z,8.99
2022-12-25T10:40:53.002Z,9.07
2022-12-25T10:43:22.698Z,9.15
2022-12-25T10:45:51.594Z,9.31
2022-12-25T10:48:22.496Z,9.42
2022-12-25T10:50:51.490Z,9.46
2022-12-25T10:53:21.168Z,9.48
2022-12-25T10:55:57.379Z,9.46
2022-12-25T10:58:26.392Z,9.42
2022-12-25T11:00:56.568Z,9.40
2022-12-25T11:03:26.126Z,9.35
2022-12-25T11:05:55.264Z,9.29
2022-12-25T11:08:24.682Z,9.24
2022-12-25T11:10:54.866Z,9.16
2022-12-25T11:13:25.106Z,9.17
2022-12-25T11:16:04.213Z,9.26
2022-12-25T11:18:35.059Z,9.37
2022-12-25T11:21:04.707Z,9.48
2022-12-25T11:23:33.771Z,9.56
2022-12-25T11:26:03.442Z,9.64
2022-12-25T11:28:34.592Z,9.70
2022-12-25T11:31:04.323Z,9.72
2022-12-25T11:33:34.041Z,9.73
2022-12-25T11:36:04.278Z,9.69
2022-12-25T11:38:33.385Z,9.70
2022-12-25T11:41:02.608Z,9.67
2022-12-25T11:43:33.724Z,9.62
2022-12-25T11:46:10.492Z,9.55
2022-12-25T11:48:41.432Z,9.52
2022-12-25T11:51:10.292Z,9.50
2022-12-25T11:53:41.188Z,9.48
2022-12-25T11:56:10.662Z,9.45
2022-12-25T11:58:40.880Z,9.47
2022-12-25T12:01:10.048Z,9.55
2022-12-25T12:03:39.322Z,9.64
2022-12-25T12:06:09.510Z,9.71
2022-12-25T12:08:38.367Z,9.86
2022-12-25T12:11:16.744Z,9.94
2022-12-25T12:13:48.909Z,9.97
2022-12-25T12:16:17.928Z,9.96
2022-12-25T12:18:50.540Z,10.00
2022-12-25T12:21:22.658Z,10.06
2022-12-25T12:23:52.246Z,10.10
2022-12-25T12:26:21.713Z,10.12
2022-12-25T12:28:50.743Z,10.14
2022-12-25T12:31:19.756Z,10.13
2022-12-25T12:33:51.786Z,10.12
2022-12-25T12:36:34.388Z,10.12
2022-12-25T12:39:05.900Z,10.12
2022-12-25T12:41:46.284Z,10.09
2022-12-25T12:44:15.183Z,10.10
2022-12-25T12:46:52.553Z,10.12
2022-12-25T12:49:23.288Z,10.11
2022-12-25T12:52:03.001Z,10.06
2022-12-25T12:54:31.975Z,9.98
2022-12-25T12:57:03.931Z,9.91
2022-12-25T12:59:36.219Z,9.83
2022-12-25T13:02:09.226Z,9.74
2022-12-25T13:04:53.336Z,9.66
2022-12-25T13:07:26.348Z,9.60
2022-12-25T13:09:58.640Z,9.56
2022-12-25T13:12:28.273Z,9.53
2022-12-25T13:14:57.239Z,9.52
2022-12-25T13:17:26.929Z,9.47
2022-12-25T13:19:56.756Z,9.41
2022-12-25T13:22:26.970Z,9.34
2022-12-25T13:25:00.498Z,9.27
2022-12-25T13:27:29.995Z,9.20
2022-12-25T13:29:59.052Z,9.14
2022-12-25T13:32:30.044Z,9.09
2022-12-25T13:34:58.896Z,9.05
2022-12-25T13:37:29.821Z,9.01
2022-12-25T13:39:59.047Z,8.97
2022-12-25T13:42:28.574Z,8.95
2022-12-25T13:44:58.516Z,8.92
2022-12-25T13:47:28.090Z,8.90
2022-12-25T13:49:57.285Z,8.90
2022-12-25T13:52:28.955Z,8.88
2022-12-25T13:54:59.303Z,8.84
2022-12-25T13:57:30.225Z,8.78
2022-12-25T13:59:59.237Z,8.71
2022-12-25T14:02:29.980Z,8.64
2022-12-25T14:04:58.886Z,8.57
2022-12-25T14:07:27.755Z,8.52
2022-12-25T14:09:57.519Z,8.48
2022-12-25T14:12:26.707Z,8.44
2022-12-25T14:14:55.589Z,8.41
2022-12-25T14:17:24.645Z,8.37
2022-12-25T14:20:07.537Z,8.37
2022-12-25T14:22:38.465Z,8.37
2022-12-25T14:25:15.670Z,8.39
2022-12-25T14:27:48.355Z,8.41
2022-12-25T14:30:18.253Z,8.43
2022-12-25T14:32:47.716Z,8.43
2022-12-25T14:35:21.459Z,8.42
2022-12-25T14:37:53.714Z,8.40
2022-12-25T14:40:23.406Z,8.38
2022-12-25T14:42:59.061Z,8.35
2022-12-25T14:45:29.006Z,8.31
2022-12-25T14:47:58.846Z,8.29
2022-12-25T14:50:28.439Z,8.31
2022-12-25T14:52:57.351Z,8.32
2022-12-25T14:55:27.107Z,8.34
2022-12-25T14:57:57.281Z,8.35
2022-12-25T15:00:27.335Z,8.35
2022-12-25T15:02:56.756Z,8.35
2022-12-25T15:05:30.043Z,8.33
2022-12-25T15:08:02.894Z,8.32
2022-12-25T15:10:59.663Z,8.29
2022-12-25T15:13:20.962Z,8.27
2022-12-25T15:15:50.934Z,8.24
2022-12-25T15:18:20.143Z,8.22
2022-12-25T15:20:52.305Z,8.20
2022-12-25T15:23:21.930Z,8.22
2022-12-25T15:25:51.694Z,8.23
2022-12-25T15:28:20.718Z,8.24
2022-12-25T15:30:50.692Z,8.26
2022-12-25T15:33:19.927Z,8.27
2022-12-25T15:35:48.953Z,8.27
2022-12-25T15:38:18.023Z,8.26
2022-12-25T15:40:47.499Z,8.24
2022-12-25T15:43:40.422Z,8.23
2022-12-25T15:46:05.945Z,8.22
2022-12-25T15:48:34.851Z,8.24
2022-12-25T15:51:03.834Z,8.27
2022-12-25T15:53:32.814Z,8.31
2022-12-25T15:56:01.975Z,8.35
2022-12-25T15:58:30.879Z,8.39
2022-12-25T16:00:59.762Z,8.42
2022-12-25T16:03:28.749Z,8.44
2022-12-25T16:05:57.587Z,8.46
2022-12-25T16:08:26.548Z,8.46
2022-12-25T16:10:55.665Z,8.43
2022-12-25T16:13:24.561Z,8.39
2022-12-25T16:15:53.493Z,8.34
2022-12-25T16:18:24.017Z,8.30
2022-12-25T16:20:52.992Z,8.27
2022-12-25T16:23:22.246Z,8.26
2022-12-25T16:25:51.156Z,8.25
2022-12-25T16:28:20.050Z,8.25
2022-12-25T16:30:49.210Z,8.20
2022-12-25T16:33:18.940Z,8.23
2022-12-25T16:35:48.181Z,8.21
2022-12-25T16:38:17.361Z,8.18
2022-12-25T16:40:46.405Z,8.15
2022-12-25T16:43:20.300Z,8.13
2022-12-25T16:45:52.715Z,8.13
2022-12-25T16:48:21.674Z,8.15
2022-12-25T16:50:50.562Z,8.18
2022-12-25T16:53:19.536Z,8.23
2022-12-25T16:55:48.462Z,8.24
2022-12-25T16:58:17.399Z,8.25
2022-12-25T17:00:49.361Z,8.26
2022-12-25T17:03:18.870Z,8.25
2022-12-25T17:05:47.918Z,8.24
2022-12-25T17:08:16.749Z,8.24
2022-12-25T17:10:45.566Z,8.24
2022-12-25T17:13:14.394Z,8.26
2022-12-25T17:15:50.047Z,8.27
2022-12-25T17:18:21.903Z,8.31
2022-12-25T17:20:54.484Z,8.34
2022-12-25T17:23:23.351Z,8.39
2022-12-25T17:25:52.211Z,8.46
2022-12-25T17:28:21.068Z,8.51
2022-12-25T17:30:50.364Z,8.54
2022-12-25T17:33:19.206Z,8.56
2022-12-25T17:35:48.222Z,8.54
2022-12-25T17:38:17.502Z,8.54
2022-12-25T17:40:46.463Z,8.55
2022-12-25T17:43:20.929Z,8.59
2022-12-25T17:45:50.235Z,8.64
2022-12-25T17:48:19.254Z,8.69
2022-12-25T17:50:48.868Z,8.72
2022-12-25T17:53:18.123Z,8.74
2022-12-25T17:55:47.145Z,8.75
2022-12-25T17:58:16.095Z,8.74
2022-12-25T18:00:44.919Z,8.72
2022-12-25T18:03:13.928Z,8.71
2022-12-25T18:05:43.042Z,8.72
2022-12-25T18:08:11.831Z,8.76
2022-12-25T18:10:42.143Z,8.80
2022-12-25T18:13:11.320Z,8.82
2022-12-25T18:15:40.298Z,8.83
2022-12-25T18:18:09.384Z,8.82
2022-12-25T18:20:40.378Z,8.81
2022-12-25T18:23:09.439Z,8.79
2022-12-25T18:25:41.529Z,8.77
2022-12-25T18:28:10.627Z,8.77
2022-12-25T18:30:40.953Z,8.78
2022-12-25T18:33:09.886Z,8.78
2022-12-25T18:35:40.690Z,8.80
2022-12-25T18:38:09.708Z,8.79
2022-12-25T18:40:41.995Z,8.74
2022-12-25T18:43:10.841Z,8.73
2022-12-25T18:45:39.780Z,8.69
2022-12-25T18:48:08.909Z,8.68
2022-12-25T18:50:38.399Z,8.69
2022-12-25T18:53:07.841Z,8.69
2022-12-25T18:55:37.493Z,8.71
2022-12-25T18:58:06.489Z,8.72
2022-12-25T19:00:35.418Z,8.72
2022-12-25T19:03:04.771Z,8.68
2022-12-25T19:05:33.919Z,8.66
2022-12-25T19:08:02.924Z,8.62
2022-12-25T19:10:31.895Z,8.57
2022-12-25T19:13:00.830Z,8.53
2022-12-25T19:15:29.708Z,8.50
2022-12-25T19:17:58.645Z,8.48
2022-12-25T19:20:27.468Z,8.47
2022-12-25T19:22:56.343Z,8.47
2022-12-25T19:25:25.377Z,8.48
2022-12-25T19:27:54.270Z,8.48
2022-12-25T19:30:23.195Z,8.48
2022-12-25T19:32:52.326Z,8.46
2022-12-25T19:35:21.340Z,8.42
2022-12-25T19:37:50.507Z,8.40
2022-12-25T19:40:19.672Z,8.41
2022-12-25T19:42:48.745Z,8.42
2022-12-25T19:45:18.026Z,8.43
2022-12-25T19:47:47.022Z,8.43
2022-12-25T19:50:16.224Z,8.45
2022-12-25T19:52:45.374Z,8.45
2022-12-25T19:55:14.202Z,8.45
2022-12-25T19:57:43.018Z,8.43
2022-12-25T20:00:12.390Z,8.40
2022-12-25T20:02:45.924Z,8.40
2022-12-25T20:05:14.871Z,8.43
2022-12-25T20:07:43.724Z,8.45
2022-12-25T20:10:12.583Z,8.48
2022-12-25T20:12:41.402Z,8.48
2022-12-25T20:15:19.716Z,8.47
2022-12-25T20:17:48.831Z,8.48
2022-12-25T20:20:17.857Z,8.42
2022-12-25T20:22:46.756Z,8.41
2022-12-25T20:25:15.691Z,8.36
2022-12-25T20:27:44.553Z,8.31
2022-12-25T20:30:14.318Z,8.29
2022-12-25T20:32:49.825Z,8.26
2022-12-25T20:35:19.438Z,8.29
2022-12-25T20:37:48.408Z,8.28
2022-12-25T20:40:17.509Z,8.27
2022-12-25T20:42:46.704Z,8.24
2022-12-25T20:45:16.524Z,8.19
2022-12-25T20:47:45.452Z,8.16
2022-12-25T20:50:14.356Z,8.14
2022-12-25T20:52:43.210Z,8.09
2022-12-25T20:55:13.414Z,8.09
2022-12-25T20:57:43.544Z,8.10
2022-12-25T21:00:13.943Z,8.09
2022-12-25T21:02:43.544Z,8.10
2022-12-25T21:05:12.594Z,8.11
2022-12-25T21:07:41.546Z,8.08
2022-12-25T21:10:11.257Z,8.06
2022-12-25T21:12:40.182Z,8.06
2022-12-25T21:15:15.134Z,8.04
2022-12-25T21:17:44.722Z,8.07
2022-12-25T21:20:13.746Z,8.08
2022-12-25T21:22:42.744Z,8.07
2022-12-25T21:25:11.884Z,8.06
2022-12-25T21:27:40.729Z,8.04
2022-12-25T21:30:14.502Z,8.02
2022-12-25T21:33:02.151Z,8.01
2022-12-25T21:35:32.243Z,8.04
2022-12-25T21:38:01.307Z,8.08
2022-12-25T21:40:30.206Z,8.11
2022-12-25T21:43:00.457Z,8.13
2022-12-25T21:45:29.957Z,8.14
2022-12-25T21:48:02.393Z,8.16
2022-12-25T21:50:49.643Z,8.16
2022-12-25T21:53:18.834Z,8.17
2022-12-25T21:55:57.531Z,8.19
2022-12-25T21:58:26.422Z,8.22
2022-12-25T22:00:55.566Z,8.24
2022-12-25T22:03:25.586Z,8.25
2022-12-25T22:06:17.706Z,8.26
2022-12-25T22:08:50.038Z,8.25
2022-12-25T22:11:36.065Z,8.25
2022-12-25T22:14:50.312Z,8.26
2022-12-25T22:17:28.548Z,8.26
2022-12-25T22:19:57.602Z,8.26
2022-12-25T22:22:26.961Z,8.25
2022-12-25T22:24:56.341Z,8.22
2022-12-25T22:27:25.497Z,8.21
2022-12-25T22:29:54.407Z,8.21
2022-12-25T22:32:23.288Z,8.23
2022-12-25T22:34:52.133Z,8.26
2022-12-25T22:37:20.987Z,8.28
2022-12-25T22:39:50.332Z,8.28
2022-12-25T22:42:19.527Z,8.27
2022-12-25T22:44:49.844Z,8.25
2022-12-25T22:47:19.277Z,8.22
2022-12-25T22:49:48.165Z,8.17
2022-12-25T22:52:17.079Z,8.14
2022-12-25T22:54:46.088Z,8.15
2022-12-25T22:57:15.829Z,8.17
2022-12-25T22:59:44.993Z,8.19
2022-12-25T23:02:14.110Z,8.22
2022-12-25T23:04:43.042Z,8.24
2022-12-25T23:07:14.306Z,8.24
2022-12-25T23:09:43.360Z,8.24
2022-12-25T23:12:32.443Z,8.24
2022-12-25T23:15:01.837Z,8.22
2022-12-25T23:17:49.588Z,8.19
2022-12-25T23:20:36.574Z,8.20
2022-12-25T23:23:23.582Z,8.21
2022-12-25T23:26:09.808Z,8.24
2022-12-25T23:28:58.362Z,8.26
2022-12-25T23:31:29.952Z,8.27
2022-12-25T23:34:00.158Z,8.27
2022-12-25T23:36:30.849Z,8.27
2022-12-25T23:39:08.949Z,8.26
2022-12-25T23:41:39.939Z,8.25
2022-12-25T23:44:11.383Z,8.24
2022-12-25T23:46:41.895Z,8.23
2022-12-25T23:49:25.080Z,8.24
2022-12-25T23:51:57.094Z,8.24
2022-12-25T23:54:28.489Z,8.24
2022-12-25T23:56:59.099Z,8.23
2022-12-25T23:59:31.226Z,8.21
